Sycamore, KS (67363)

7:45 PM CST on December 22, 2014 (GMT -0600)
HADS ELK RIVER AT ELK CITY LAKE NEAR KS US USARMY-COE | Change Station
CLOSE
Current Station
Personal Weather Station
Location: Sycamore, KS
Elevation: 794 ft
Nearby Weather Stations

Elev 794 ft 37.28 °N, 95.78 °W | Updated 45 minutes ago

Clear
Clear
45 °F
Feels Like 45 °F
N
3
Wind Variable Wind from WSW
Gusts 0.0 mph

Today
High -- | Low -- °F
--% Chance of Precip.
Yesterday
High -- | Low -- °F
Precip. -- in
7:33 AM 5:09 PM
New Moon, 1% visible
Pressure 29.61 in
Visibility 10.0 miles
Clouds Clear
Windchill 45 °F
Dew Point 42 °F
Humidity 90%
Rainfall 0.01 in
Snow Depth Not available.
UV 0 out of 12
Pollen 6.30 out of 12
Air Quality Not available.
Flu Activity Not available.
METAR KPPF 230052Z AUTO 21003KT 10SM CLR 04/03 A2960 RMK AO2 SLP026 T00440033

More Conditions Fewer Conditions

Pressure 29.61 in
Visibility 10.0 miles
Clouds Clear
Windchill 45 °F
Dew Point 42 °F
Humidity 90%
Rainfall 0.01 in
Snow Depth Not available.
UV 0 out of 12
Pollen 6.30 out of 12
Air Quality Not available.
Flu Activity Not available.
METAR KPPF 230052Z AUTO 21003KT 10SM CLR 04/03 A2960 RMK AO2 SLP026 T00440033

More Conditions Fewer Conditions

10-Day Weather Forecast

Almanac

Astronomy

Dec. 22, 2014 Rise Set
Actual Time
Civil Twilight
Nautical Twilight
Astronomical Twilight
Moon
Length of Visible Light
Length of Day
Tomorrow will be .
, % of the Moon is Illuminated

Today's Extremes

State Highs State Lows

Community

WunderPhotos

Upload Photos

1,779,753 photos uploaded!

WunderBlogs® & News

Nearby

Air Quality

  Air Quality AQ Index Pollutant
Not available.

Snow Depth

Station Depth Elevation

Earthquake Activity

City Distance Mag. Time & Date
Minimum magnitude displayed is 2.5.

Coastal Water Temperatures

Place Temperature

Nearby Weather Stations